Time;durP1;ratioP1;P1;durP2;ratioP2;P2;SDS_P1;SDS_P2;PMS_P1;PMS_P2;Temp;Humidity;BMP_temperature;BMP_pressure;BME280_temperature;BME280_humidity;BME280_pressure;Samples;Min_cycle;Max_cycle;Signal;HPM_P1;HPM_P2
2021/08/09 00:01:41;;;;;;;0.00;0.00;;;;;;;;;;5109566;28;20200;-68
2021/08/09 00:04:07;;;;;;;0.10;0.10;;;;;;;;;;5112633;28;20220;-69
2021/08/09 00:06:33;;;;;;;0.10;0.10;;;;;;;;;;5117520;28;20282;-69
2021/08/09 00:09:02;;;;;;;0.10;0.10;;;;;;;;;;5103345;28;20228;-70
2021/08/09 00:11:28;;;;;;;0.10;0.10;;;;;;;;;;5103421;28;20220;-68
2021/08/09 00:13:55;;;;;;;0.10;0.10;;;;;;;;;;5113728;28;20208;-70
2021/08/09 00:16:22;;;;;;;0.10;0.10;;;;;;;;;;5123426;28;20318;-69
2021/08/09 00:18:49;;;;;;;0.10;0.10;;;;;;;;;;5103052;28;20232;-70
2021/08/09 00:21:16;;;;;;;0.00;0.00;;;;;;;;;;5115639;28;20270;-69
2021/08/09 00:23:42;;;;;;;0.00;0.00;;;;;;;;;;5109220;28;20205;-69
2021/08/09 00:26:10;;;;;;;0.05;0.05;;;;;;;;;;5112954;28;20375;-69
2021/08/09 00:28:36;;;;;;;0.00;0.00;;;;;;;;;;5104536;28;20230;-69
2021/08/09 00:31:03;;;;;;;0.10;0.10;;;;;;;;;;5113776;28;20252;-69
2021/08/09 00:33:29;;;;;;;0.10;0.10;;;;;;;;;;5122438;28;20493;-71
2021/08/09 00:35:56;;;;;;;0.10;0.10;;;;;;;;;;5110673;28;20248;-69
2021/08/09 00:38:22;;;;;;;0.05;0.05;;;;;;;;;;5123142;28;20213;-68
2021/08/09 00:40:49;;;;;;;0.08;0.08;;;;;;;;;;5109246;28;20203;-69
2021/08/09 00:43:16;;;;;;;0.00;0.00;;;;;;;;;;5115954;28;20206;-69
2021/08/09 00:45:43;;;;;;;0.00;0.00;;;;;;;;;;5109713;28;20211;-69
2021/08/09 00:48:09;;;;;;;0.00;0.00;;;;;;;;;;5112863;28;20248;-70
2021/08/09 00:50:35;;;;;;;0.00;0.00;;;;;;;;;;5127502;28;20501;-70
2021/08/09 00:53:02;;;;;;;0.08;0.08;;;;;;;;;;5108958;28;20369;-70
2021/08/09 00:55:28;;;;;;;0.00;0.00;;;;;;;;;;5106778;28;20215;-70
2021/08/09 00:57:54;;;;;;;0.00;0.00;;;;;;;;;;5106628;28;20528;-68
2021/08/09 01:00:22;;;;;;;0.03;0.03;;;;;;;;;;5108663;28;20449;-69
2021/08/09 01:02:48;;;;;;;0.00;0.00;;;;;;;;;;5121811;28;20465;-70
2021/08/09 01:05:14;;;;;;;0.10;0.10;;;;;;;;;;5106246;28;20218;-69
2021/08/09 01:07:44;;;;;;;0.00;0.00;;;;;;;;;;5117762;28;20587;-69
2021/08/09 01:10:15;;;;;;;0.08;0.08;;;;;;;;;;5121584;28;20207;-69
2021/08/09 01:12:46;;;;;;;0.00;0.00;;;;;;;;;;5118334;28;20195;-71
2021/08/09 01:15:18;;;;;;;0.00;0.00;;;;;;;;;;5107619;28;20199;-71
2021/08/09 01:17:46;;;;;;;0.00;0.00;;;;;;;;;;5110074;28;20573;-68
2021/08/09 01:20:20;;;;;;;0.00;0.00;;;;;;;;;;5110573;28;20230;-68
2021/08/09 01:22:51;;;;;;;0.10;0.10;;;;;;;;;;5115960;27;20399;-70
2021/08/09 01:25:20;;;;;;;0.00;0.00;;;;;;;;;;5109732;28;20202;-68
2021/08/09 01:27:49;;;;;;;0.00;0.00;;;;;;;;;;5115957;28;20228;-68
2021/08/09 01:30:15;;;;;;;0.00;0.00;;;;;;;;;;5122862;28;20248;-70
2021/08/09 01:32:42;;;;;;;0.10;0.10;;;;;;;;;;5124998;28;20247;-70
2021/08/09 01:35:09;;;;;;;0.10;0.10;;;;;;;;;;5111022;28;20203;-70
2021/08/09 01:37:37;;;;;;;0.00;0.00;;;;;;;;;;5109639;28;20252;-71
2021/08/09 01:40:05;;;;;;;0.10;0.10;;;;;;;;;;5105672;28;20233;-68
2021/08/09 01:42:32;;;;;;;0.00;0.00;;;;;;;;;;5105489;28;20208;-68
2021/08/09 01:44:59;;;;;;;0.00;0.00;;;;;;;;;;5105743;28;20210;-69
2021/08/09 01:47:26;;;;;;;0.00;0.00;;;;;;;;;;5119259;28;20551;-69
2021/08/09 01:49:53;;;;;;;0.03;0.03;;;;;;;;;;5104996;28;20206;-69
2021/08/09 01:52:20;;;;;;;0.00;0.00;;;;;;;;;;5118019;28;20243;-69
2021/08/09 01:54:46;;;;;;;0.00;0.00;;;;;;;;;;5106802;28;20205;-69
2021/08/09 01:57:13;;;;;;;0.05;0.05;;;;;;;;;;5112933;28;20215;-69
2021/08/09 01:59:39;;;;;;;0.00;0.00;;;;;;;;;;5108602;28;20207;-69
2021/08/09 02:02:06;;;;;;;0.00;0.00;;;;;;;;;;5114605;28;20211;-68
2021/08/09 02:04:33;;;;;;;0.00;0.00;;;;;;;;;;5113527;28;20205;-69
2021/08/09 02:06:59;;;;;;;0.00;0.00;;;;;;;;;;5113554;28;20210;-69
2021/08/09 02:09:25;;;;;;;0.10;0.10;;;;;;;;;;5114061;27;20326;-69
2021/08/09 02:11:54;;;;;;;0.10;0.10;;;;;;;;;;5108853;28;20241;-69
2021/08/09 02:14:21;;;;;;;0.00;0.00;;;;;;;;;;5105225;28;20232;-70
2021/08/09 02:16:51;;;;;;;0.10;0.10;;;;;;;;;;5119449;28;20203;-70
2021/08/09 02:19:21;;;;;;;0.10;0.10;;;;;;;;;;5110240;28;20440;-70
2021/08/09 02:21:49;;;;;;;0.00;0.00;;;;;;;;;;5106155;28;20505;-69
2021/08/09 02:24:19;;;;;;;0.00;0.00;;;;;;;;;;5110037;28;20272;-70
2021/08/09 02:26:46;;;;;;;0.10;0.10;;;;;;;;;;5113064;28;20199;-69
2021/08/09 02:29:15;;;;;;;0.10;0.10;;;;;;;;;;5119398;28;20294;-69
2021/08/09 02:31:43;;;;;;;0.10;0.10;;;;;;;;;;5116161;28;20199;-71
2021/08/09 02:34:10;;;;;;;0.08;0.08;;;;;;;;;;5107867;28;20434;-69
2021/08/09 02:36:39;;;;;;;0.00;0.00;;;;;;;;;;5106957;28;20206;-69
2021/08/09 02:39:06;;;;;;;0.00;0.00;;;;;;;;;;5106509;28;20216;-69
2021/08/09 02:41:32;;;;;;;0.03;0.03;;;;;;;;;;5125265;28;20204;-70
2021/08/09 02:43:58;;;;;;;0.08;0.08;;;;;;;;;;5111532;28;20248;-70
2021/08/09 02:46:25;;;;;;;0.10;0.10;;;;;;;;;;5104688;28;20255;-69
2021/08/09 02:48:52;;;;;;;0.10;0.10;;;;;;;;;;5116912;28;20537;-69
2021/08/09 02:51:20;;;;;;;0.08;0.08;;;;;;;;;;5108935;28;20221;-70
2021/08/09 02:53:48;;;;;;;0.10;0.10;;;;;;;;;;5115660;28;20298;-69
2021/08/09 02:56:14;;;;;;;0.00;0.00;;;;;;;;;;5110681;28;20252;-69
2021/08/09 02:58:41;;;;;;;0.00;0.00;;;;;;;;;;5124557;28;20194;-68
2021/08/09 03:01:08;;;;;;;0.10;0.10;;;;;;;;;;5109657;28;20232;-69
2021/08/09 03:03:35;;;;;;;0.10;0.10;;;;;;;;;;5111313;28;20287;-70
2021/08/09 03:06:01;;;;;;;0.10;0.10;;;;;;;;;;5124565;28;20236;-70
2021/08/09 03:08:28;;;;;;;0.00;0.00;;;;;;;;;;5112611;28;20280;-70
2021/08/09 03:10:56;;;;;;;0.00;0.00;;;;;;;;;;5113196;28;20472;-70
2021/08/09 03:13:22;;;;;;;0.10;0.10;;;;;;;;;;5107339;28;20261;-69
2021/08/09 03:15:49;;;;;;;0.10;0.10;;;;;;;;;;5115400;28;20199;-69
2021/08/09 03:18:15;;;;;;;0.10;0.10;;;;;;;;;;5117921;28;20268;-69
2021/08/09 03:20:41;;;;;;;0.00;0.00;;;;;;;;;;5103615;28;20203;-70
2021/08/09 03:23:08;;;;;;;0.00;0.00;;;;;;;;;;5104518;28;20207;-69
2021/08/09 03:25:34;;;;;;;0.00;0.00;;;;;;;;;;5109460;28;20259;-69
2021/08/09 03:28:02;;;;;;;0.00;0.00;;;;;;;;;;5112818;28;20221;-69
2021/08/09 03:30:29;;;;;;;0.10;0.10;;;;;;;;;;5103530;28;20200;-69
2021/08/09 03:32:55;;;;;;;0.08;0.08;;;;;;;;;;5103429;28;20242;-69
2021/08/09 03:35:21;;;;;;;0.10;0.10;;;;;;;;;;5103197;28;20223;-69
2021/08/09 03:37:48;;;;;;;0.05;0.05;;;;;;;;;;5114738;28;20220;-69
2021/08/09 03:40:14;;;;;;;0.00;0.00;;;;;;;;;;5114030;28;20402;-69
2021/08/09 03:42:40;;;;;;;0.10;0.10;;;;;;;;;;5117836;28;20240;-70
2021/08/09 03:45:09;;;;;;;0.10;0.10;;;;;;;;;;5115670;28;20202;-70
2021/08/09 03:47:35;;;;;;;0.10;0.10;;;;;;;;;;5105530;28;20261;-69
2021/08/09 03:50:01;;;;;;;0.00;0.00;;;;;;;;;;5103137;28;20230;-69
2021/08/09 03:52:28;;;;;;;0.10;0.10;;;;;;;;;;5115588;28;20241;-70
2021/08/09 03:54:54;;;;;;;0.10;0.10;;;;;;;;;;5123483;28;20341;-69
2021/08/09 03:57:20;;;;;;;0.10;0.10;;;;;;;;;;5123334;28;20205;-70
2021/08/09 03:59:46;;;;;;;0.10;0.10;;;;;;;;;;5109465;28;20218;-69
2021/08/09 04:02:17;;;;;;;0.00;0.00;;;;;;;;;;5123248;28;20226;-69
2021/08/09 04:04:43;;;;;;;0.10;0.10;;;;;;;;;;5103835;28;20218;-70
2021/08/09 04:07:10;;;;;;;0.00;0.00;;;;;;;;;;5114564;28;20216;-68
2021/08/09 04:09:36;;;;;;;0.00;0.00;;;;;;;;;;5105928;28;20298;-69
2021/08/09 04:12:02;;;;;;;0.00;0.00;;;;;;;;;;5103363;28;20240;-69
2021/08/09 04:14:28;;;;;;;0.05;0.05;;;;;;;;;;5117416;28;20201;-69
2021/08/09 04:16:55;;;;;;;0.00;0.00;;;;;;;;;;5121295;28;20209;-69
2021/08/09 04:19:22;;;;;;;0.00;0.00;;;;;;;;;;5114808;28;20462;-69
2021/08/09 04:21:48;;;;;;;0.03;0.03;;;;;;;;;;5121785;28;20231;-68
2021/08/09 04:24:15;;;;;;;0.00;0.00;;;;;;;;;;5107423;28;20271;-69
2021/08/09 04:26:41;;;;;;;0.10;0.10;;;;;;;;;;5114226;28;20386;-69
2021/08/09 04:29:08;;;;;;;0.10;0.10;;;;;;;;;;5113622;28;20334;-69
2021/08/09 04:31:34;;;;;;;0.08;0.08;;;;;;;;;;5114820;28;20199;-70
2021/08/09 04:34:00;;;;;;;0.05;0.05;;;;;;;;;;5106880;28;20211;-69
2021/08/09 04:36:28;;;;;;;0.00;0.00;;;;;;;;;;5106811;28;20251;-69
2021/08/09 04:38:54;;;;;;;0.00;0.00;;;;;;;;;;5106687;28;20532;-70
2021/08/09 04:41:21;;;;;;;0.10;0.10;;;;;;;;;;5107056;28;20497;-70
2021/08/09 04:43:47;;;;;;;0.00;0.00;;;;;;;;;;5106874;28;20206;-68
2021/08/09 04:46:13;;;;;;;0.10;0.10;;;;;;;;;;5114072;28;20244;-69
2021/08/09 04:48:39;;;;;;;0.10;0.10;;;;;;;;;;5113835;28;20250;-70
2021/08/09 04:51:05;;;;;;;0.08;0.08;;;;;;;;;;5111602;28;20199;-70
2021/08/09 04:53:33;;;;;;;0.10;0.10;;;;;;;;;;5116391;28;20206;-69
2021/08/09 04:55:59;;;;;;;0.10;0.10;;;;;;;;;;5120925;28;20241;-69
2021/08/09 04:58:26;;;;;;;0.10;0.10;;;;;;;;;;5116531;28;20262;-69
2021/08/09 05:00:52;;;;;;;0.10;0.10;;;;;;;;;;5112748;28;20405;-69
2021/08/09 05:03:18;;;;;;;0.10;0.10;;;;;;;;;;5119365;28;20227;-70
2021/08/09 05:05:45;;;;;;;0.00;0.00;;;;;;;;;;5120855;28;20224;-69
2021/08/09 05:08:11;;;;;;;0.10;0.10;;;;;;;;;;5106860;28;20202;-70
2021/08/09 05:10:39;;;;;;;0.05;0.05;;;;;;;;;;5118906;28;20255;-69
2021/08/09 05:13:06;;;;;;;0.00;0.00;;;;;;;;;;5108230;28;20207;-69
2021/08/09 05:15:34;;;;;;;0.00;0.00;;;;;;;;;;5109755;28;20281;-69
2021/08/09 05:18:00;;;;;;;0.10;0.10;;;;;;;;;;5126984;28;20568;-69
2021/08/09 05:20:26;;;;;;;0.10;0.10;;;;;;;;;;5122146;28;20191;-69
2021/08/09 05:22:52;;;;;;;0.10;0.10;;;;;;;;;;5106385;28;20198;-69
2021/08/09 05:25:21;;;;;;;0.00;0.00;;;;;;;;;;5106308;28;20406;-69
2021/08/09 05:27:49;;;;;;;0.10;0.10;;;;;;;;;;5106082;28;20207;-70
2021/08/09 05:30:15;;;;;;;0.10;0.10;;;;;;;;;;5121261;28;20226;-68
2021/08/09 05:32:41;;;;;;;0.10;0.10;;;;;;;;;;5125897;28;20403;-69
2021/08/09 05:35:09;;;;;;;0.10;0.10;;;;;;;;;;5106644;28;20202;-69
2021/08/09 05:37:35;;;;;;;0.00;0.00;;;;;;;;;;5105957;28;20199;-68
2021/08/09 05:40:02;;;;;;;0.10;0.10;;;;;;;;;;5108206;28;20196;-68
2021/08/09 05:42:28;;;;;;;4.15;3.95;;;;;;;;;;5109039;28;20209;-68
2021/08/09 05:44:56;;;;;;;0.10;0.10;;;;;;;;;;5109988;28;20302;-69
2021/08/09 05:47:23;;;;;;;0.10;0.10;;;;;;;;;;5114040;28;20209;-68
2021/08/09 05:49:49;;;;;;;0.03;0.03;;;;;;;;;;5117558;28;20233;-68
2021/08/09 05:52:19;;;;;;;0.00;0.00;;;;;;;;;;5112297;28;20274;-68
2021/08/09 05:54:45;;;;;;;0.10;0.10;;;;;;;;;;5112691;28;20265;-68
2021/08/09 05:57:12;;;;;;;0.00;0.00;;;;;;;;;;5108677;28;20203;-68
2021/08/09 05:59:38;;;;;;;0.05;0.05;;;;;;;;;;5110226;28;20203;-68
2021/08/09 06:02:06;;;;;;;0.10;0.10;;;;;;;;;;5109357;28;20286;-69
2021/08/09 06:04:32;;;;;;;0.10;0.10;;;;;;;;;;5116964;28;20488;-68
2021/08/09 06:06:59;;;;;;;0.00;0.00;;;;;;;;;;5115227;28;20211;-69
2021/08/09 06:09:25;;;;;;;0.10;0.10;;;;;;;;;;5107570;28;20318;-69
2021/08/09 06:11:52;;;;;;;0.00;0.00;;;;;;;;;;5113093;28;20199;-69
2021/08/09 06:14:18;;;;;;;0.10;0.10;;;;;;;;;;5112845;28;20217;-68
2021/08/09 06:16:44;;;;;;;0.10;0.10;;;;;;;;;;5111360;28;20541;-70
2021/08/09 06:19:12;;;;;;;0.00;0.00;;;;;;;;;;5110152;28;20225;-68
2021/08/09 06:21:38;;;;;;;0.00;0.00;;;;;;;;;;5116227;28;20203;-69
2021/08/09 06:24:05;;;;;;;0.00;0.00;;;;;;;;;;5111776;28;20206;-69
2021/08/09 06:26:32;;;;;;;0.10;0.10;;;;;;;;;;5111139;28;20198;-68
2021/08/09 06:28:58;;;;;;;0.00;0.00;;;;;;;;;;5107573;28;20228;-69
2021/08/09 06:31:24;;;;;;;0.00;0.00;;;;;;;;;;5104662;28;20212;-70
2021/08/09 06:33:50;;;;;;;0.00;0.00;;;;;;;;;;5108030;28;20266;-70
2021/08/09 06:36:18;;;;;;;0.05;0.05;;;;;;;;;;5114911;28;20209;-69
2021/08/09 06:38:44;;;;;;;0.10;0.10;;;;;;;;;;5110225;28;20267;-68
2021/08/09 06:41:11;;;;;;;0.10;0.10;;;;;;;;;;5107270;28;20393;-69
2021/08/09 06:43:37;;;;;;;0.08;0.08;;;;;;;;;;5105677;28;20200;-69
2021/08/09 06:46:03;;;;;;;0.08;0.08;;;;;;;;;;5104416;28;20416;-69
2021/08/09 06:48:29;;;;;;;0.10;0.10;;;;;;;;;;5104443;28;20209;-68
2021/08/09 06:50:56;;;;;;;0.10;0.10;;;;;;;;;;5103938;28;20232;-68
2021/08/09 06:53:24;;;;;;;0.10;0.10;;;;;;;;;;5106820;28;20199;-70
2021/08/09 06:55:50;;;;;;;0.10;0.10;;;;;;;;;;5109298;28;20226;-71
2021/08/09 06:58:16;;;;;;;0.10;0.10;;;;;;;;;;5108213;28;20254;-69
2021/08/09 07:00:43;;;;;;;0.10;0.10;;;;;;;;;;5115647;28;20200;-70
2021/08/09 07:03:09;;;;;;;0.00;0.00;;;;;;;;;;5114261;28;20400;-69
2021/08/09 07:05:42;;;;;;;0.10;0.10;;;;;;;;;;5113836;28;20230;-69
2021/08/09 07:08:08;;;;;;;0.00;0.00;;;;;;;;;;5108778;28;20208;-70
2021/08/09 07:10:36;;;;;;;0.10;0.10;;;;;;;;;;5111727;28;20224;-69
2021/08/09 07:13:02;;;;;;;0.10;0.10;;;;;;;;;;5109003;28;20204;-69
2021/08/09 07:15:28;;;;;;;0.03;0.03;;;;;;;;;;5110830;28;20255;-69
2021/08/09 07:17:54;;;;;;;0.10;0.10;;;;;;;;;;5106678;28;20516;-71
2021/08/09 07:20:21;;;;;;;0.00;0.00;;;;;;;;;;5110179;28;20248;-70
2021/08/09 07:22:47;;;;;;;0.10;0.10;;;;;;;;;;5112536;28;20210;-70
2021/08/09 07:25:15;;;;;;;0.00;0.00;;;;;;;;;;5111473;28;20217;-70
2021/08/09 07:27:42;;;;;;;0.00;0.00;;;;;;;;;;5108294;28;20271;-68
2021/08/09 07:30:10;;;;;;;0.10;0.10;;;;;;;;;;5103554;28;20225;-68
2021/08/09 07:32:36;;;;;;;0.08;0.08;;;;;;;;;;5103793;28;20201;-71
2021/08/09 07:35:03;;;;;;;0.10;0.10;;;;;;;;;;5110459;28;20208;-70
2021/08/09 07:37:29;;;;;;;0.00;0.00;;;;;;;;;;5103671;28;20552;-70
2021/08/09 07:39:55;;;;;;;0.00;0.00;;;;;;;;;;5118218;28;20195;-70
2021/08/09 07:42:22;;;;;;;0.00;0.00;;;;;;;;;;5114230;28;20207;-69
2021/08/09 07:44:49;;;;;;;0.00;0.00;;;;;;;;;;5116839;28;20204;-69
2021/08/09 07:47:15;;;;;;;0.03;0.03;;;;;;;;;;5115639;28;20207;-68
2021/08/09 07:49:42;;;;;;;0.03;0.03;;;;;;;;;;5110879;28;20219;-69
2021/08/09 07:52:08;;;;;;;0.13;0.13;;;;;;;;;;5117448;28;20236;-69
2021/08/09 07:54:34;;;;;;;0.00;0.00;;;;;;;;;;5105607;28;20232;-68
2021/08/09 07:57:04;;;;;;;0.00;0.00;;;;;;;;;;5106703;28;20259;-68
2021/08/09 07:59:30;;;;;;;0.00;0.00;;;;;;;;;;5105658;28;20424;-68
2021/08/09 08:01:58;;;;;;;0.00;0.00;;;;;;;;;;5114785;28;20241;-68
2021/08/09 08:04:24;;;;;;;0.10;0.10;;;;;;;;;;5105719;28;20211;-68
2021/08/09 08:06:50;;;;;;;0.10;0.10;;;;;;;;;;5102648;28;20259;-68
2021/08/09 08:09:17;;;;;;;0.00;0.00;;;;;;;;;;5102978;28;20228;-67
2021/08/09 08:11:43;;;;;;;0.00;0.00;;;;;;;;;;5109954;28;20209;-67
2021/08/09 08:14:09;;;;;;;0.00;0.00;;;;;;;;;;5116803;28;20200;-70
2021/08/09 08:16:35;;;;;;;0.10;0.10;;;;;;;;;;5112163;28;20488;-69
2021/08/09 08:19:03;;;;;;;0.10;0.10;;;;;;;;;;5123482;28;20223;-71
2021/08/09 08:21:29;;;;;;;0.10;0.10;;;;;;;;;;5117704;28;20202;-68
2021/08/09 08:23:56;;;;;;;0.00;0.00;;;;;;;;;;5103970;28;20271;-73
2021/08/09 08:26:22;;;;;;;0.00;0.00;;;;;;;;;;5108026;28;20213;-73
2021/08/09 08:28:49;;;;;;;0.00;0.00;;;;;;;;;;5109747;28;20500;-73
2021/08/09 08:31:15;;;;;;;0.00;0.00;;;;;;;;;;5108493;28;20221;-71
2021/08/09 08:33:41;;;;;;;0.00;0.00;;;;;;;;;;5113831;28;20205;-72
2021/08/09 08:36:09;;;;;;;0.00;0.00;;;;;;;;;;5107450;28;20215;-71
2021/08/09 08:38:36;;;;;;;0.00;0.00;;;;;;;;;;5112635;28;20279;-71
2021/08/09 08:41:04;;;;;;;0.00;0.00;;;;;;;;;;5106707;28;20233;-73
2021/08/09 08:43:31;;;;;;;0.10;0.10;;;;;;;;;;5109312;28;20209;-72
2021/08/09 08:45:58;;;;;;;0.10;0.10;;;;;;;;;;5105995;28;20221;-74
2021/08/09 08:48:25;;;;;;;0.10;0.10;;;;;;;;;;5104228;28;20259;-74
2021/08/09 08:50:51;;;;;;;0.00;0.00;;;;;;;;;;5108443;28;20275;-77
2021/08/09 08:53:19;;;;;;;0.00;0.00;;;;;;;;;;5104505;28;20362;-76
2021/08/09 08:55:46;;;;;;;0.08;0.08;;;;;;;;;;5109932;28;20395;-75
2021/08/09 08:58:12;;;;;;;0.00;0.00;;;;;;;;;;5112565;28;20540;-75
2021/08/09 09:00:38;;;;;;;0.00;0.00;;;;;;;;;;5109532;28;20489;-73
2021/08/09 09:03:06;;;;;;;0.08;0.08;;;;;;;;;;5107974;28;20212;-73
2021/08/09 09:05:33;;;;;;;0.00;0.00;;;;;;;;;;5107224;28;20206;-73
2021/08/09 09:08:00;;;;;;;0.00;0.00;;;;;;;;;;5107125;28;20212;-73
2021/08/09 09:10:30;;;;;;;0.00;0.00;;;;;;;;;;5114493;28;20544;-71
2021/08/09 09:13:06;;;;;;;0.10;0.10;;;;;;;;;;5120564;28;20296;-72
2021/08/09 09:15:52;;;;;;;0.00;0.00;;;;;;;;;;5122451;28;20263;-70
2021/08/09 09:18:19;;;;;;;0.10;0.10;;;;;;;;;;5123570;28;20240;-71
2021/08/09 09:20:45;;;;;;;0.00;0.00;;;;;;;;;;5121310;28;20231;-70
2021/08/09 09:23:13;;;;;;;0.00;0.00;;;;;;;;;;5121516;28;20213;-69
2021/08/09 09:25:41;;;;;;;0.00;0.00;;;;;;;;;;5121257;28;20520;-69
2021/08/09 09:28:26;;;;;;;0.00;0.00;;;;;;;;;;5120602;28;20209;-70
2021/08/09 09:30:54;;;;;;;0.10;0.10;;;;;;;;;;5119736;28;20409;-71
2021/08/09 09:33:20;;;;;;;0.20;0.20;;;;;;;;;;5106171;28;20200;-70
2021/08/09 09:35:49;;;;;;;0.10;0.10;;;;;;;;;;5109944;28;20206;-71
2021/08/09 09:38:16;;;;;;;0.00;0.00;;;;;;;;;;5108587;28;20209;-72
2021/08/09 09:40:44;;;;;;;0.00;0.00;;;;;;;;;;5110682;28;20195;-72
2021/08/09 09:43:17;;;;;;;0.10;0.10;;;;;;;;;;5116942;28;20206;-71
2021/08/09 09:45:50;;;;;;;0.00;0.00;;;;;;;;;;5110464;28;20201;-71
2021/08/09 09:48:16;;;;;;;0.00;0.00;;;;;;;;;;5116591;28;20508;-71
2021/08/09 09:50:45;;;;;;;0.10;0.10;;;;;;;;;;5109146;28;20218;-73
2021/08/09 09:53:15;;;;;;;0.00;0.00;;;;;;;;;;5114531;28;20211;-72
2021/08/09 09:55:41;;;;;;;0.00;0.00;;;;;;;;;;5110004;28;20245;-71
2021/08/09 09:58:09;;;;;;;0.05;0.05;;;;;;;;;;5117886;28;20213;-72
2021/08/09 10:00:35;;;;;;;0.10;0.10;;;;;;;;;;5117508;28;20244;-71
2021/08/09 10:03:02;;;;;;;0.00;0.00;;;;;;;;;;5123524;28;20211;-72
2021/08/09 10:05:30;;;;;;;0.10;0.10;;;;;;;;;;5115450;28;20339;-72
2021/08/09 10:07:57;;;;;;;0.00;0.00;;;;;;;;;;5108904;28;20439;-71
2021/08/09 10:10:24;;;;;;;0.10;0.10;;;;;;;;;;5113997;28;20552;-72
2021/08/09 10:12:51;;;;;;;0.00;0.00;;;;;;;;;;5122282;28;20203;-71
2021/08/09 10:15:20;;;;;;;0.10;0.10;;;;;;;;;;5105007;28;20213;-71
2021/08/09 10:17:47;;;;;;;0.00;0.00;;;;;;;;;;5115774;28;20274;-72
2021/08/09 10:20:16;;;;;;;0.00;0.00;;;;;;;;;;5125217;28;20195;-71
2021/08/09 10:22:54;;;;;;;0.00;0.00;;;;;;;;;;5120000;28;20201;-71
2021/08/09 10:25:41;;;;;;;0.10;0.10;;;;;;;;;;5107918;28;20212;-70
2021/08/09 10:28:07;;;;;;;0.00;0.00;;;;;;;;;;5105062;28;20210;-70
2021/08/09 10:30:36;;;;;;;0.10;0.10;;;;;;;;;;5104640;28;20223;-70
2021/08/09 10:33:07;;;;;;;0.00;0.00;;;;;;;;;;5115790;28;20199;-71
2021/08/09 10:35:58;;;;;;;0.00;0.00;;;;;;;;;;5122450;28;20198;-71
2021/08/09 10:38:24;;;;;;;0.10;0.10;;;;;;;;;;5108118;28;20270;-71
2021/08/09 10:41:06;;;;;;;0.00;0.00;;;;;;;;;;5109596;28;20205;-71
2021/08/09 10:43:32;;;;;;;0.00;0.00;;;;;;;;;;5112049;28;20209;-70
2021/08/09 10:46:00;;;;;;;0.08;0.08;;;;;;;;;;5115976;28;20302;-73
2021/08/09 10:48:41;;;;;;;0.05;0.05;;;;;;;;;;5121864;28;20314;-71
2021/08/09 10:51:07;;;;;;;0.00;0.00;;;;;;;;;;5118709;28;20233;-70
2021/08/09 10:53:41;;;;;;;0.10;0.10;;;;;;;;;;5104360;28;20209;-70
2021/08/09 10:56:08;;;;;;;0.00;0.00;;;;;;;;;;5110829;28;20213;-71
2021/08/09 10:58:56;;;;;;;0.00;0.00;;;;;;;;;;5121941;28;20388;-71
2021/08/09 11:01:24;;;;;;;0.10;0.10;;;;;;;;;;5113751;28;20270;-71
2021/08/09 11:04:11;;;;;;;0.00;0.00;;;;;;;;;;5124846;28;20287;-71
2021/08/09 11:06:38;;;;;;;0.00;0.00;;;;;;;;;;5110989;28;20275;-71
2021/08/09 11:09:19;;;;;;;0.00;0.00;;;;;;;;;;5118801;28;20209;-72
2021/08/09 11:12:10;;;;;;;0.08;0.08;;;;;;;;;;5112056;28;20221;-72
2021/08/09 11:14:56;;;;;;;0.03;0.03;;;;;;;;;;5084013;28;20277;-72
2021/08/09 11:17:24;;;;;;;0.00;0.00;;;;;;;;;;5104309;28;20251;-71
2021/08/09 11:19:50;;;;;;;0.10;0.10;;;;;;;;;;5104068;28;20276;-72
2021/08/09 11:22:17;;;;;;;0.00;0.00;;;;;;;;;;5103776;28;20269;-72
2021/08/09 11:24:43;;;;;;;0.10;0.10;;;;;;;;;;5104273;28;20506;-73
2021/08/09 11:27:10;;;;;;;0.03;0.03;;;;;;;;;;5108742;28;20198;-74
2021/08/09 11:29:50;;;;;;;0.00;0.00;;;;;;;;;;5123806;28;20496;-74
2021/08/09 11:32:16;;;;;;;0.00;0.00;;;;;;;;;;5119853;28;20214;-72
2021/08/09 11:34:57;;;;;;;0.00;0.00;;;;;;;;;;5106815;28;20244;-66
2021/08/09 11:37:25;;;;;;;0.00;0.00;;;;;;;;;;5103904;28;20198;-70
2021/08/09 11:39:51;;;;;;;0.00;0.00;;;;;;;;;;5112445;28;20239;-70
2021/08/09 11:42:17;;;;;;;0.00;0.00;;;;;;;;;;5114910;28;20198;-70
2021/08/09 11:44:45;;;;;;;0.00;0.00;;;;;;;;;;5109828;28;20244;-70
2021/08/09 11:47:13;;;;;;;0.00;0.00;;;;;;;;;;5104657;28;20202;-70
2021/08/09 11:49:39;;;;;;;0.00;0.00;;;;;;;;;;5117555;28;20203;-76
2021/08/09 11:52:07;;;;;;;0.40;0.40;;;;;;;;;;5117197;28;20313;-72
2021/08/09 11:54:41;;;;;;;0.00;0.00;;;;;;;;;;5112915;28;20239;-72
2021/08/09 11:57:07;;;;;;;0.00;0.00;;;;;;;;;;5111585;28;20211;-73
2021/08/09 11:59:38;;;;;;;0.00;0.00;;;;;;;;;;5108977;28;20256;-73
2021/08/09 12:02:10;;;;;;;0.05;0.05;;;;;;;;;;5111615;28;20202;-73
2021/08/09 12:04:41;;;;;;;0.00;0.00;;;;;;;;;;5120241;28;20287;-73
2021/08/09 12:07:17;;;;;;;0.00;0.00;;;;;;;;;;5116658;28;20214;-73
2021/08/09 12:09:45;;;;;;;0.00;0.00;;;;;;;;;;5107538;28;20232;-73
2021/08/09 12:12:12;;;;;;;0.00;0.00;;;;;;;;;;5103929;28;20421;-73
2021/08/09 12:14:39;;;;;;;0.00;0.00;;;;;;;;;;5115963;28;20198;-73
2021/08/09 12:17:13;;;;;;;0.00;0.00;;;;;;;;;;5118552;28;20206;-73
2021/08/09 12:19:41;;;;;;;0.00;0.00;;;;;;;;;;5115685;28;20259;-73
2021/08/09 12:22:12;;;;;;;0.10;0.10;;;;;;;;;;5105178;28;20240;-74
2021/08/09 12:24:39;;;;;;;0.03;0.03;;;;;;;;;;5103461;28;20214;-75
2021/08/09 12:27:17;;;;;;;0.00;0.00;;;;;;;;;;5103095;28;20226;-73
2021/08/09 12:29:58;;;;;;;0.00;0.00;;;;;;;;;;5110257;28;20369;-73
2021/08/09 12:32:26;;;;;;;0.00;0.00;;;;;;;;;;5104234;28;20556;-73
2021/08/09 12:34:52;;;;;;;0.00;0.00;;;;;;;;;;5103359;28;20461;-72
2021/08/09 12:37:18;;;;;;;0.00;0.00;;;;;;;;;;5117445;28;20199;-72
2021/08/09 12:39:44;;;;;;;0.00;0.00;;;;;;;;;;5103735;28;20202;-74
2021/08/09 12:42:12;;;;;;;0.00;0.00;;;;;;;;;;5121715;28;20199;-74
2021/08/09 12:44:39;;;;;;;0.00;0.00;;;;;;;;;;5119874;28;20230;-74
2021/08/09 12:47:06;;;;;;;0.00;0.00;;;;;;;;;;5125257;28;20205;-74
2021/08/09 12:49:32;;;;;;;0.00;0.00;;;;;;;;;;5107505;28;20220;-74
2021/08/09 12:51:58;;;;;;;0.00;0.00;;;;;;;;;;5107003;28;20280;-74
2021/08/09 12:54:25;;;;;;;0.00;0.00;;;;;;;;;;5126050;28;20268;-74
2021/08/09 12:56:51;;;;;;;0.00;0.00;;;;;;;;;;5127768;28;20221;-74
2021/08/09 12:59:17;;;;;;;0.00;0.00;;;;;;;;;;5124889;28;20210;-74
2021/08/09 13:01:45;;;;;;;0.10;0.10;;;;;;;;;;5112333;28;20202;-74
2021/08/09 13:04:11;;;;;;;0.00;0.00;;;;;;;;;;5123637;28;20241;-73
2021/08/09 13:06:37;;;;;;;0.00;0.00;;;;;;;;;;5106555;28;20214;-73
2021/08/09 13:09:03;;;;;;;0.00;0.00;;;;;;;;;;5109542;28;20536;-73
2021/08/09 13:11:30;;;;;;;0.10;0.10;;;;;;;;;;5123251;28;20206;-73
2021/08/09 13:13:56;;;;;;;0.00;0.00;;;;;;;;;;5113109;28;20249;-73
2021/08/09 13:16:22;;;;;;;0.00;0.00;;;;;;;;;;5123495;28;20269;-74
2021/08/09 13:18:50;;;;;;;0.00;0.00;;;;;;;;;;5115518;28;20222;-73
2021/08/09 13:21:16;;;;;;;0.00;0.00;;;;;;;;;;5115532;28;20210;-74
2021/08/09 13:23:42;;;;;;;0.00;0.00;;;;;;;;;;5106671;28;20486;-73
2021/08/09 13:26:08;;;;;;;0.00;0.00;;;;;;;;;;5116492;28;20206;-74
2021/08/09 13:28:35;;;;;;;0.00;0.00;;;;;;;;;;5126586;28;20198;-74
2021/08/09 13:31:02;;;;;;;0.00;0.00;;;;;;;;;;5119064;28;20276;-75
2021/08/09 13:33:28;;;;;;;0.00;0.00;;;;;;;;;;5115286;28;20198;-74
2021/08/09 13:35:55;;;;;;;0.00;0.00;;;;;;;;;;5112544;28;20205;-73
2021/08/09 13:38:22;;;;;;;0.00;0.00;;;;;;;;;;5114032;28;20211;-73
2021/08/09 13:40:48;;;;;;;0.00;0.00;;;;;;;;;;5120807;28;20304;-74
2021/08/09 13:43:14;;;;;;;0.00;0.00;;;;;;;;;;5106188;28;20206;-74
2021/08/09 13:45:41;;;;;;;0.10;0.10;;;;;;;;;;5108814;28;20203;-75
2021/08/09 13:48:07;;;;;;;0.00;0.00;;;;;;;;;;5118534;28;20207;-74
2021/08/09 13:50:33;;;;;;;0.00;0.00;;;;;;;;;;5105767;28;20524;-74
2021/08/09 13:53:01;;;;;;;0.00;0.00;;;;;;;;;;5126228;28;20263;-74
2021/08/09 13:55:27;;;;;;;0.00;0.00;;;;;;;;;;5113358;28;20212;-73
2021/08/09 13:57:53;;;;;;;0.00;0.00;;;;;;;;;;5105975;28;20207;-73
2021/08/09 14:00:20;;;;;;;0.00;0.00;;;;;;;;;;5105862;28;20248;-73
2021/08/09 14:02:46;;;;;;;0.10;0.10;;;;;;;;;;5108731;28;20198;-73
2021/08/09 14:05:13;;;;;;;0.00;0.00;;;;;;;;;;5124077;28;20255;-73
2021/08/09 14:07:39;;;;;;;0.10;0.10;;;;;;;;;;5126108;27;20445;-73
2021/08/09 14:10:08;;;;;;;0.00;0.00;;;;;;;;;;5118364;28;20206;-73
2021/08/09 14:12:35;;;;;;;0.00;0.00;;;;;;;;;;5105485;28;20268;-74
2021/08/09 14:15:01;;;;;;;0.00;0.00;;;;;;;;;;5105375;28;20210;-74
2021/08/09 14:17:27;;;;;;;0.00;0.00;;;;;;;;;;5113552;28;20198;-74
2021/08/09 14:19:53;;;;;;;0.00;0.00;;;;;;;;;;5123715;27;20206;-73
2021/08/09 14:22:20;;;;;;;0.00;0.00;;;;;;;;;;5115715;28;20264;-72
2021/08/09 14:24:46;;;;;;;0.00;0.00;;;;;;;;;;5105632;28;20271;-73
2021/08/09 14:27:16;;;;;;;0.08;0.08;;;;;;;;;;5105091;28;20232;-73
2021/08/09 14:29:42;;;;;;;0.00;0.00;;;;;;;;;;5105054;28;20198;-73
2021/08/09 14:32:08;;;;;;;0.00;0.00;;;;;;;;;;5107595;28;20218;-72
2021/08/09 14:34:35;;;;;;;0.08;0.08;;;;;;;;;;5125574;28;20504;-73
2021/08/09 14:37:01;;;;;;;0.00;0.00;;;;;;;;;;5113091;28;20202;-72
2021/08/09 14:39:27;;;;;;;0.00;0.00;;;;;;;;;;5105108;28;20207;-73
2021/08/09 14:41:54;;;;;;;0.10;0.10;;;;;;;;;;5104989;28;20208;-73
2021/08/09 14:44:21;;;;;;;0.00;0.00;;;;;;;;;;5124939;28;20198;-73
2021/08/09 14:46:48;;;;;;;0.00;0.00;;;;;;;;;;5113828;28;20211;-73